Time;durP1;ratioP1;P1;durP2;ratioP2;P2;SDS_P1;SDS_P2;PMS_P1;PMS_P2;Temp;Humidity;BMP_temperature;BMP_pressure;BME280_temperature;BME280_humidity;BME280_pressure;Samples;Min_cycle;Max_cycle;Signal;HPM_P1;HPM_P2
2022/05/19 00:02:06;;;;;;;4.22;2.72;;;23.20;54.10;;;;;;5043634;28;20059;-80
2022/05/19 00:04:32;;;;;;;4.15;2.63;;;23.10;53.00;;;;;;5049967;28;20032;-79
2022/05/19 00:06:57;;;;;;;5.67;2.83;;;23.10;53.10;;;;;;5032632;28;20150;-80
2022/05/19 00:09:23;;;;;;;4.20;2.97;;;23.10;53.20;;;;;;5045825;28;20032;-80
2022/05/19 00:11:49;;;;;;;3.70;2.87;;;23.00;53.30;;;;;;5035506;28;20444;-80
2022/05/19 00:14:16;;;;;;;4.07;2.63;;;23.00;53.60;;;;;;5056439;28;20043;-81
2022/05/19 00:16:41;;;;;;;4.55;3.00;;;23.00;53.70;;;;;;5052219;28;20041;-79
2022/05/19 00:19:07;;;;;;;4.07;2.80;;;22.90;53.80;;;;;;5032700;28;20910;-80
2022/05/19 00:21:33;;;;;;;4.10;2.78;;;22.90;54.00;;;;;;5036057;28;20025;-80
2022/05/19 00:23:59;;;;;;;4.40;2.75;;;22.90;54.10;;;;;;5072686;28;20029;-80
2022/05/19 00:26:25;;;;;;;4.73;2.70;;;22.90;54.20;;;;;;5042962;28;20081;-80
2022/05/19 00:28:50;;;;;;;4.35;2.38;;;22.80;54.30;;;;;;5016621;28;20033;-80
2022/05/19 00:31:16;;;;;;;5.47;3.07;;;22.80;54.40;;;;;;5042366;28;20029;-80
2022/05/19 00:33:43;;;;;;;4.50;3.00;;;22.80;54.60;;;;;;5034894;28;20100;-80
2022/05/19 00:36:15;;;;;;;3.80;2.63;;;22.80;54.70;;;;;;5048913;28;20267;-79
2022/05/19 00:38:41;;;;;;;4.15;2.80;;;22.80;55.70;;;;;;5053540;28;20033;-80
2022/05/19 00:41:07;;;;;;;3.43;2.60;;;22.80;55.00;;;;;;5061371;28;20040;-80
2022/05/19 00:43:42;;;;;;;5.22;2.85;;;22.80;55.10;;;;;;5026048;28;20101;-80
2022/05/19 00:46:19;;;;;;;4.18;2.72;;;22.80;55.90;;;;;;5056350;28;20028;-80
2022/05/19 00:49:01;;;;;;;4.30;2.67;;;22.80;56.30;;;;;;5060359;28;20509;-81
2022/05/19 00:51:36;;;;;;;4.22;2.80;;;22.80;55.90;;;;;;5037223;28;20044;-80
2022/05/19 00:54:06;;;;;;;3.47;2.60;;;22.70;56.50;;;;;;5042837;28;20427;-80
2022/05/19 00:57:04;;;;;;;4.18;2.75;;;22.70;55.80;;;;;;5050314;28;20035;-81
2022/05/19 00:59:33;;;;;;;4.07;2.53;;;22.70;56.80;;;;;;5049714;28;20123;-80
2022/05/19 01:01:59;;;;;;;5.57;2.67;;;22.70;55.50;;;;;;5055161;28;20043;-79
2022/05/19 01:04:39;;;;;;;3.35;2.47;;;22.70;55.70;;;;;;5048270;28;20033;-80
2022/05/19 01:07:17;;;;;;;4.00;2.37;;;22.70;56.80;;;;;;5047486;28;20326;-79
2022/05/19 01:09:43;;;;;;;3.45;2.67;;;22.70;56.60;;;;;;5057506;28;20044;-80
2022/05/19 01:12:10;;;;;;;3.65;2.53;;;22.60;55.90;;;;;;5069463;28;20477;-80
2022/05/19 01:14:36;;;;;;;3.80;2.67;;;22.60;56.00;;;;;;5038941;28;20654;-80
2022/05/19 01:17:04;;;;;;;4.03;2.60;;;22.60;56.20;;;;;;5037814;28;20428;-80
2022/05/19 01:20:09;;;;;;;3.73;2.60;;;22.60;56.30;;;;;;5071201;28;20100;-80
2022/05/19 01:22:55;;;;;;;4.13;2.65;;;22.60;58.10;;;;;;5003654;28;20056;-80
2022/05/19 01:25:49;;;;;;;5.10;2.75;;;22.60;57.30;;;;;;5074851;28;20526;-80
2022/05/19 01:28:15;;;;;;;4.43;2.60;;;22.60;57.70;;;;;;5062538;28;20629;-80
2022/05/19 01:30:42;;;;;;;3.70;2.60;;;22.60;56.50;;;;;;5044579;28;20033;-80
2022/05/19 01:33:08;;;;;;;4.77;2.77;;;22.50;56.60;;;;;;5057585;28;20051;-79
2022/05/19 01:35:33;;;;;;;4.95;2.80;;;22.50;56.60;;;;;;5063327;28;20033;-80
2022/05/19 01:38:01;;;;;;;5.75;3.13;;;22.50;56.80;;;;;;5058601;28;20067;-80
2022/05/19 01:40:44;;;;;;;4.55;2.70;;;22.50;56.90;;;;;;5057773;28;20118;-80
2022/05/19 01:43:38;;;;;;;4.17;2.87;;;22.50;58.30;;;;;;5060781;28;20063;-79
2022/05/19 01:46:15;;;;;;;4.20;2.70;;;22.50;58.40;;;;;;5048221;28;20123;-80
2022/05/19 01:49:01;;;;;;;4.22;2.67;;;22.50;57.40;;;;;;5056207;28;20092;-79
2022/05/19 01:51:32;;;;;;;4.57;2.60;;;22.40;57.10;;;;;;5057423;28;20519;-80
2022/05/19 01:54:14;;;;;;;5.32;2.70;;;22.40;57.70;;;;;;5065489;28;20024;-80
2022/05/19 01:57:09;;;;;;;4.07;2.70;;;22.40;58.50;;;;;;5053133;28;20028;-80
2022/05/19 01:59:35;;;;;;;5.05;2.83;;;22.40;57.80;;;;;;5023803;28;20040;-80
2022/05/19 02:02:16;;;;;;;5.18;2.65;;;22.40;57.30;;;;;;5032153;28;20032;-80
2022/05/19 02:04:54;;;;;;;4.70;2.60;;;22.40;58.30;;;;;;5063574;28;20036;-80
2022/05/19 02:07:22;;;;;;;4.03;2.40;;;22.40;59.30;;;;;;5060441;28;20038;-80
2022/05/19 02:10:01;;;;;;;3.90;2.50;;;22.40;57.70;;;;;;5043326;28;20033;-80
2022/05/19 02:12:32;;;;;;;3.20;2.42;;;22.40;59.10;;;;;;5052086;28;20230;-80
2022/05/19 02:15:03;;;;;;;3.17;2.40;;;22.40;58.10;;;;;;5044789;28;20460;-80
2022/05/19 02:17:30;;;;;;;4.60;2.85;;;22.40;58.10;;;;;;5042023;28;20039;-82
2022/05/19 02:20:19;;;;;;;5.03;2.53;;;22.40;58.00;;;;;;5057897;28;20152;-82
2022/05/19 02:22:45;;;;;;;4.68;2.97;;;22.40;59.80;;;;;;5076683;28;20024;-81
2022/05/19 02:25:27;;;;;;;5.20;2.75;;;22.40;58.60;;;;;;5032553;28;20036;-80
2022/05/19 02:28:04;;;;;;;3.88;2.65;;;22.40;59.70;;;;;;5064333;28;20037;-80
2022/05/19 02:30:33;;;;;;;4.45;3.03;;;22.50;59.40;;;;;;5048839;28;20051;-82
2022/05/19 02:32:59;;;;;;;4.97;2.77;;;22.50;59.10;;;;;;5034229;28;20036;-80
2022/05/19 02:35:26;;;;;;;4.85;2.85;;;22.60;58.90;;;;;;5058135;28;20170;-80
2022/05/19 02:37:53;;;;;;;4.00;2.97;;;22.60;58.90;;;;;;5065489;28;20039;-80
2022/05/19 02:40:20;;;;;;;6.88;2.80;;;22.70;59.00;;;;;;5048326;28;20029;-79
2022/05/19 02:42:46;;;;;;;4.88;3.10;;;22.80;59.00;;;;;;5058743;28;20044;-80
2022/05/19 02:45:13;;;;;;;5.10;3.10;;;22.80;58.90;;;;;;5045333;28;20275;-80
2022/05/19 02:47:39;;;;;;;4.05;2.70;;;22.80;58.90;;;;;;5032415;28;20401;-80
2022/05/19 02:50:07;;;;;;;3.37;2.33;;;22.90;58.80;;;;;;5045837;28;20086;-80
2022/05/19 02:52:33;;;;;;;4.72;2.90;;;22.90;58.90;;;;;;5037314;28;20452;-79
2022/05/19 02:54:58;;;;;;;4.03;2.95;;;22.90;58.80;;;;;;5060328;28;20036;-79
2022/05/19 02:57:24;;;;;;;4.97;2.80;;;22.90;58.80;;;;;;5069772;28;20635;-79
2022/05/19 02:59:50;;;;;;;4.20;3.00;;;23.00;58.80;;;;;;5060337;28;20290;-80
2022/05/19 03:02:16;;;;;;;4.50;2.70;;;23.00;58.90;;;;;;5020903;28;20227;-80
2022/05/19 03:04:42;;;;;;;4.07;3.10;;;23.00;58.80;;;;;;5066809;28;20485;-80
2022/05/19 03:07:07;;;;;;;4.30;3.22;;;23.00;58.90;;;;;;5026670;28;20083;-80
2022/05/19 03:09:34;;;;;;;4.87;2.87;;;23.10;59.00;;;;;;5064960;28;20040;-80
2022/05/19 03:12:00;;;;;;;5.78;3.22;;;23.10;59.10;;;;;;5067341;28;20036;-80
2022/05/19 03:14:25;;;;;;;5.40;3.00;;;23.10;59.10;;;;;;5037471;28;20039;-80
2022/05/19 03:16:51;;;;;;;6.10;3.47;;;23.10;59.20;;;;;;5064380;28;20573;-80
2022/05/19 03:19:17;;;;;;;6.07;3.50;;;23.10;59.30;;;;;;5047041;28;20036;-81
2022/05/19 03:21:42;;;;;;;5.53;3.33;;;23.10;60.10;;;;;;5036769;28;20117;-80
2022/05/19 03:24:11;;;;;;;6.47;3.67;;;23.10;59.60;;;;;;5030114;28;20062;-80
2022/05/19 03:26:37;;;;;;;6.65;3.30;;;23.10;60.30;;;;;;5047772;28;20040;-80
2022/05/19 03:29:04;;;;;;;5.65;3.10;;;23.00;60.00;;;;;;5029650;28;20050;-81
2022/05/19 03:31:30;;;;;;;4.65;3.00;;;22.90;59.80;;;;;;5044764;28;20063;-80
2022/05/19 03:33:56;;;;;;;4.15;2.67;;;22.90;60.00;;;;;;5055427;28;20040;-81
2022/05/19 03:36:21;;;;;;;4.77;2.30;;;22.70;60.80;;;;;;5028844;28;20032;-81
2022/05/19 03:38:47;;;;;;;4.20;2.47;;;22.60;61.30;;;;;;5054754;28;20368;-80
2022/05/19 03:41:13;;;;;;;4.90;2.40;;;22.50;61.60;;;;;;5059074;28;20382;-81
2022/05/19 03:43:39;;;;;;;3.55;2.13;;;22.40;62.00;;;;;;5065073;28;20107;-81
2022/05/19 03:46:05;;;;;;;3.00;1.98;;;22.30;62.30;;;;;;5042242;28;20036;-80
2022/05/19 03:48:35;;;;;;;3.87;2.17;;;22.10;62.10;;;;;;5072801;28;20024;-81
2022/05/19 03:51:04;;;;;;;3.25;2.10;;;22.00;63.00;;;;;;5036219;28;20040;-81
2022/05/19 03:53:30;;;;;;;3.95;2.50;;;21.90;63.10;;;;;;5043681;28;20573;-81
2022/05/19 03:55:55;;;;;;;3.30;2.17;;;21.80;63.80;;;;;;5054247;28;20053;-81
2022/05/19 03:58:21;;;;;;;3.53;2.00;;;21.70;64.80;;;;;;5068383;28;20032;-81
2022/05/19 04:00:47;;;;;;;2.85;1.80;;;21.60;65.30;;;;;;5053159;28;20047;-80
2022/05/19 04:03:13;;;;;;;2.97;1.80;;;21.60;65.80;;;;;;5033600;28;20040;-80
2022/05/19 04:05:38;;;;;;;2.78;1.80;;;21.50;66.40;;;;;;5039757;28;20473;-81
2022/05/19 04:08:05;;;;;;;3.87;1.93;;;21.40;66.80;;;;;;5037026;28;20039;-80
2022/05/19 04:10:30;;;;;;;4.10;2.15;;;21.40;67.40;;;;;;5028583;28;20034;-80
2022/05/19 04:12:56;;;;;;;2.50;1.83;;;21.30;67.80;;;;;;5064822;28;20064;-81
2022/05/19 04:15:22;;;;;;;3.42;2.10;;;21.30;68.30;;;;;;5049824;28;20048;-81
2022/05/19 04:17:47;;;;;;;3.70;2.17;;;21.30;68.70;;;;;;5044926;28;20021;-80
2022/05/19 04:20:13;;;;;;;4.50;2.23;;;21.20;69.00;;;;;;5055688;28;20640;-80
2022/05/19 04:22:39;;;;;;;3.38;2.17;;;21.10;69.30;;;;;;5062549;28;20029;-81
2022/05/19 04:25:07;;;;;;;4.13;2.40;;;21.10;70.20;;;;;;5027885;28;20033;-80
2022/05/19 04:27:34;;;;;;;3.37;2.10;;;21.10;70.10;;;;;;5045227;28;20059;-80
2022/05/19 04:30:00;;;;;;;3.70;1.92;;;21.10;70.20;;;;;;5054495;28;20033;-80
2022/05/19 04:32:26;;;;;;;3.35;2.00;;;21.00;70.70;;;;;;5040125;28;20055;-80
2022/05/19 04:34:51;;;;;;;3.35;2.20;;;21.00;71.10;;;;;;5063315;28;20032;-80
2022/05/19 04:37:17;;;;;;;3.67;2.10;;;21.00;71.50;;;;;;5028317;28;20206;-81
2022/05/19 04:39:43;;;;;;;3.22;2.10;;;20.90;71.80;;;;;;5059045;28;20082;-80
2022/05/19 04:42:10;;;;;;;4.37;2.40;;;20.90;71.90;;;;;;5036105;28;20028;-81
2022/05/19 04:44:37;;;;;;;3.90;2.47;;;20.90;72.20;;;;;;5054956;28;20036;-81
2022/05/19 04:47:03;;;;;;;4.57;2.30;;;20.90;72.60;;;;;;5056716;28;20444;-81
2022/05/19 04:49:29;;;;;;;4.50;2.40;;;20.90;72.90;;;;;;5066625;28;20040;-81
2022/05/19 04:51:55;;;;;;;3.83;2.20;;;20.90;73.20;;;;;;5040594;28;20543;-80
2022/05/19 04:54:20;;;;;;;4.82;2.20;;;20.90;73.60;;;;;;5024881;28;20226;-81
2022/05/19 04:56:46;;;;;;;3.83;2.80;;;20.80;73.60;;;;;;5041449;28;20055;-81
2022/05/19 04:59:14;;;;;;;3.80;2.20;;;20.80;73.80;;;;;;5055718;28;20571;-80
2022/05/19 05:01:48;;;;;;;3.45;2.00;;;20.80;74.00;;;;;;5031091;28;20142;-81
2022/05/19 05:04:15;;;;;;;3.00;2.15;;;20.80;74.80;;;;;;5027451;28;20036;-80
2022/05/19 05:06:41;;;;;;;3.17;2.20;;;20.80;74.70;;;;;;5015192;28;20756;-81
2022/05/19 05:09:08;;;;;;;3.65;2.10;;;20.80;75.40;;;;;;5027494;28;20043;-81
2022/05/19 05:11:34;;;;;;;2.65;2.13;;;20.80;75.80;;;;;;5043042;28;20563;-80
2022/05/19 05:14:00;;;;;;;3.22;2.08;;;20.80;77.00;;;;;;5056277;28;20044;-81
2022/05/19 05:16:26;;;;;;;2.80;1.90;;;20.70;76.60;;;;;;5041147;28;20075;-80
2022/05/19 05:18:51;;;;;;;3.58;2.13;;;20.70;77.00;;;;;;5059107;28;20063;-80
2022/05/19 05:21:17;;;;;;;2.60;2.00;;;20.70;77.60;;;;;;5048682;28;20478;-80
2022/05/19 05:23:44;;;;;;;4.00;1.90;;;20.70;78.00;;;;;;5025816;28;22135;-80
2022/05/19 05:26:10;;;;;;;3.20;1.92;;;20.70;78.50;;;;;;5033922;28;20075;-80
2022/05/19 05:28:37;;;;;;;2.67;1.90;;;20.70;78.80;;;;;;5045279;28;20267;-81
2022/05/19 05:31:03;;;;;;;3.53;1.90;;;20.70;79.10;;;;;;5056871;28;20721;-80
2022/05/19 05:33:29;;;;;;;3.45;2.20;;;20.70;79.50;;;;;;5034437;28;20037;-80
2022/05/19 05:35:55;;;;;;;3.58;2.10;;;20.70;79.90;;;;;;5030672;28;20032;-80
2022/05/19 05:38:21;;;;;;;2.90;2.40;;;20.70;80.30;;;;;;5065426;28;20437;-81
2022/05/19 05:40:50;;;;;;;4.10;2.95;;;20.70;80.70;;;;;;5040491;28;20040;-81
2022/05/19 05:43:18;;;;;;;3.50;2.38;;;20.70;81.10;;;;;;5041478;28;20038;-80
2022/05/19 05:45:48;;;;;;;3.75;2.20;;;20.80;81.50;;;;;;5049644;28;20766;-81
2022/05/19 05:48:15;;;;;;;3.57;2.23;;;20.80;81.60;;;;;;5047409;28;20039;-81
2022/05/19 05:50:41;;;;;;;3.60;2.20;;;20.80;81.80;;;;;;5044892;28;20105;-80
2022/05/19 05:53:08;;;;;;;2.85;2.10;;;20.80;81.90;;;;;;5039578;28;20032;-81
2022/05/19 05:55:34;;;;;;;3.35;2.08;;;20.80;82.20;;;;;;5044384;28;20090;-81
2022/05/19 05:58:04;;;;;;;3.58;2.38;;;20.80;82.50;;;;;;5040508;28;20037;-80
2022/05/19 06:00:30;;;;;;;3.20;2.60;;;20.80;82.70;;;;;;5051349;28;20035;-80
2022/05/19 06:02:56;;;;;;;2.97;2.30;;;20.90;82.90;;;;;;5029459;28;20024;-80
2022/05/19 06:05:21;;;;;;;3.55;2.33;;;20.90;83.10;;;;;;5049025;28;20116;-80
2022/05/19 06:07:47;;;;;;;4.27;2.70;;;20.90;83.40;;;;;;5056261;28;20072;-80
2022/05/19 06:10:13;;;;;;;3.23;2.47;;;21.00;83.60;;;;;;5035010;28;20099;-80
2022/05/19 06:12:40;;;;;;;3.67;2.55;;;20.90;83.80;;;;;;5047093;28;20041;-80
2022/05/19 06:15:07;;;;;;;3.60;2.60;;;21.00;85.00;;;;;;5038937;28;20489;-81
2022/05/19 06:17:32;;;;;;;4.03;2.58;;;21.00;84.50;;;;;;5019612;28;20499;-80
2022/05/19 06:19:58;;;;;;;4.17;2.43;;;21.00;84.80;;;;;;5029005;28;20037;-80
2022/05/19 06:22:24;;;;;;;3.75;2.65;;;21.00;84.90;;;;;;5039090;28;20106;-80
2022/05/19 06:24:50;;;;;;;3.50;2.50;;;21.00;85.10;;;;;;5028808;28;20063;-80
2022/05/19 06:27:16;;;;;;;3.95;2.80;;;21.10;85.40;;;;;;5043082;28;20043;-80
2022/05/19 06:29:42;;;;;;;4.13;2.58;;;21.10;85.70;;;;;;5052966;28;20028;-80
2022/05/19 06:32:08;;;;;;;4.18;2.80;;;21.10;86.00;;;;;;5051020;28;20029;-80
2022/05/19 06:34:34;;;;;;;4.03;2.80;;;21.20;86.50;;;;;;5064458;28;20045;-80
2022/05/19 06:37:02;;;;;;;3.83;2.90;;;21.30;87.10;;;;;;5041856;28;20143;-80
2022/05/19 06:39:28;;;;;;;4.72;3.08;;;21.40;87.70;;;;;;5039909;28;20052;-80
2022/05/19 06:42:02;;;;;;;4.90;3.15;;;21.40;88.20;;;;;;5023201;28;20452;-80
2022/05/19 06:44:35;;;;;;;4.70;3.00;;;21.50;88.60;;;;;;5032647;28;21225;-80
2022/05/19 06:47:02;;;;;;;4.55;3.40;;;21.70;88.70;;;;;;5044029;28;20446;-80
2022/05/19 06:49:28;;;;;;;5.45;3.55;;;21.80;89.20;;;;;;5060189;28;20432;-80
2022/05/19 06:51:53;;;;;;;6.32;3.75;;;21.90;89.40;;;;;;5045952;28;20048;-80
2022/05/19 06:54:20;;;;;;;5.57;3.97;;;22.10;89.60;;;;;;5033029;28;20036;-80
2022/05/19 06:56:46;;;;;;;4.85;4.28;;;22.10;89.80;;;;;;5046048;28;20032;-81
2022/05/19 06:59:12;;;;;;;5.93;4.38;;;22.30;90.00;;;;;;5018567;28;20505;-80
2022/05/19 07:01:38;;;;;;;5.28;4.20;;;22.30;90.00;;;;;;5055729;28;20029;-80
2022/05/19 07:04:03;;;;;;;7.50;4.30;;;22.50;90.10;;;;;;5043726;28;20683;-79
2022/05/19 07:06:29;;;;;;;5.10;4.00;;;22.60;90.30;;;;;;5042734;28;20029;-80
2022/05/19 07:08:55;;;;;;;6.17;3.80;;;22.70;90.40;;;;;;5064556;28;20036;-80
2022/05/19 07:11:26;;;;;;;5.30;4.03;;;22.80;90.50;;;;;;5057392;28;20264;-80
2022/05/19 07:14:04;;;;;;;5.00;4.38;;;23.00;90.70;;;;;;5035740;28;20119;-80
2022/05/19 07:16:31;;;;;;;6.43;4.30;;;23.10;90.40;;;;;;5053638;28;20122;-80
2022/05/19 07:21:44;;;;;;;6.20;4.40;;;23.40;90.50;;;;;;5057311;28;20036;-82
2022/05/19 07:24:18;;;;;;;7.25;4.57;;;23.50;90.10;;;;;;5045448;28;20036;-80
2022/05/19 07:26:46;;;;;;;5.85;4.65;;;23.60;90.00;;;;;;5040264;28;20059;-80
2022/05/19 07:29:12;;;;;;;7.50;5.70;;;23.70;90.10;;;;;;5030631;28;20233;-80
2022/05/19 07:31:40;;;;;;;7.18;5.05;;;23.80;89.80;;;;;;5042235;28;20045;-81
2022/05/19 07:34:07;;;;;;;6.40;4.93;;;23.90;89.80;;;;;;5046007;28;20041;-80
2022/05/19 07:36:33;;;;;;;6.63;5.40;;;24.00;90.10;;;;;;5044838;28;20042;-81
2022/05/19 07:39:00;;;;;;;6.17;5.10;;;24.10;89.40;;;;;;5063779;28;20028;-81
2022/05/19 07:41:27;;;;;;;6.70;4.60;;;24.20;89.80;;;;;;5055665;28;20112;-81
2022/05/19 07:43:53;;;;;;;6.63;4.95;;;24.30;90.10;;;;;;5082213;28;20041;-81
2022/05/19 07:46:19;;;;;;;6.25;4.82;;;24.50;90.20;;;;;;5042608;28;20047;-80
2022/05/19 07:48:45;;;;;;;7.63;4.78;;;24.60;90.40;;;;;;5068573;28;20320;-80
2022/05/19 07:51:12;;;;;;;6.47;4.40;;;24.80;90.60;;;;;;5063062;28;20052;-81
2022/05/19 07:53:38;;;;;;;5.05;4.53;;;25.00;90.60;;;;;;5046583;28;20032;-80
2022/05/19 07:56:04;;;;;;;5.47;4.22;;;25.20;90.80;;;;;;5060902;28;20089;-81
2022/05/19 07:58:30;;;;;;;4.65;3.95;;;25.50;91.10;;;;;;5075114;28;20147;-80
2022/05/19 08:00:57;;;;;;;5.67;3.73;;;25.70;91.30;;;;;;5050159;28;20028;-80
2022/05/19 08:03:24;;;;;;;5.57;4.00;;;25.90;90.90;;;;;;5059673;28;20160;-80
2022/05/19 08:05:50;;;;;;;3.75;3.05;;;26.20;90.70;;;;;;5046689;28;20058;-81
2022/05/19 08:08:15;;;;;;;4.07;3.28;;;26.40;90.90;;;;;;5041144;28;20220;-81
2022/05/19 08:10:41;;;;;;;5.80;3.90;;;26.60;90.90;;;;;;5046124;28;20507;-82
2022/05/19 08:16:11;;;;;;;4.18;2.92;;;27.00;90.20;;;;;;4993121;28;20092;-80
2022/05/19 08:18:37;;;;;;;4.90;3.00;;;27.30;89.90;;;;;;4988071;28;20034;-82
2022/05/19 08:21:06;;;;;;;4.27;3.43;;;27.60;89.80;;;;;;5026704;28;20033;-81
2022/05/19 08:23:38;;;;;;;3.60;3.10;;;27.70;88.10;;;;;;5045351;28;20209;-81
2022/05/19 08:26:05;;;;;;;4.15;3.28;;;27.90;86.50;;;;;;5035756;28;20029;-81
2022/05/19 08:28:31;;;;;;;3.67;3.03;;;28.00;87.80;;;;;;5056928;28;20536;-82
2022/05/19 08:31:09;;;;;;;4.32;3.03;;;28.20;87.40;;;;;;5063674;28;20036;-81
2022/05/19 08:33:37;;;;;;;3.90;2.40;;;28.40;85.40;;;;;;5035410;28;20036;-81
2022/05/19 08:36:04;;;;;;;2.85;2.50;;;28.50;87.20;;;;;;5032322;28;20029;-81
2022/05/19 08:38:31;;;;;;;5.00;3.25;;;28.60;86.70;;;;;;5062552;28;20381;-82
2022/05/19 08:41:14;;;;;;;2.95;2.63;;;28.70;85.40;;;;;;5045578;28;20138;-81
2022/05/19 08:44:04;;;;;;;4.88;2.95;;;28.80;80.30;;;;;;5040282;28;20049;-81
2022/05/19 08:46:38;;;;;;;3.83;2.67;;;28.90;79.30;;;;;;5063060;28;20029;-81
2022/05/19 08:49:14;;;;;;;4.25;3.00;;;29.00;83.40;;;;;;5022529;28;20044;-79
2022/05/19 08:51:49;;;;;;;3.47;2.60;;;29.00;79.80;;;;;;5049695;28;20032;-80
2022/05/19 08:54:20;;;;;;;4.38;3.00;;;29.00;80.40;;;;;;5059343;28;20149;-80
2022/05/19 08:57:08;;;;;;;3.67;2.72;;;29.00;81.40;;;;;;5062261;28;20485;-80
2022/05/19 08:59:53;;;;;;;3.27;2.80;;;28.90;78.90;;;;;;5063769;28;20366;-81
2022/05/19 09:02:46;;;;;;;5.10;3.25;;;28.80;78.00;;;;;;5043083;28;20066;-80
2022/05/19 09:05:32;;;;;;;3.58;2.90;;;28.80;76.50;;;;;;5033171;28;20079;-82
2022/05/19 09:08:33;;;;;;;3.03;2.72;;;28.70;80.40;;;;;;5039787;28;20083;-80
2022/05/19 09:11:14;;;;;;;3.72;2.90;;;28.70;78.90;;;;;;5030915;28;20409;-81
2022/05/19 09:13:54;;;;;;;3.57;2.87;;;28.80;80.10;;;;;;5038596;28;20036;-81
2022/05/19 09:16:20;;;;;;;3.40;2.90;;;29.00;80.00;;;;;;5049280;28;20280;-81
2022/05/19 09:19:20;;;;;;;4.03;3.00;;;29.20;87.10;;;;;;5027511;28;20033;-80
2022/05/19 09:22:02;;;;;;;4.17;2.67;;;29.50;82.60;;;;;;5049963;28;20063;-80
2022/05/19 09:24:28;;;;;;;4.60;2.90;;;29.80;87.50;;;;;;5071052;28;20032;-82
2022/05/19 09:26:56;;;;;;;3.97;2.42;;;30.10;87.60;;;;;;5061676;28;20459;-81
2022/05/19 09:29:36;;;;;;;3.38;2.65;;;30.30;85.90;;;;;;5045909;28;20037;-81
2022/05/19 09:32:07;;;;;;;4.47;2.47;;;30.50;82.20;;;;;;5033054;28;20393;-81
2022/05/19 09:34:35;;;;;;;2.90;2.20;;;30.70;82.90;;;;;;5041102;28;20063;-80
2022/05/19 09:37:11;;;;;;;2.50;2.30;;;31.00;85.20;;;;;;5043059;28;20032;-81
2022/05/19 09:39:52;;;;;;;3.08;2.63;;;31.20;82.40;;;;;;5044363;28;20108;-82
2022/05/19 09:42:34;;;;;;;3.80;2.20;;;31.50;80.00;;;;;;5037143;28;20036;-81
2022/05/19 09:45:00;;;;;;;2.33;2.13;;;31.70;80.20;;;;;;5060615;28;20116;-81
2022/05/19 09:47:36;;;;;;;2.93;2.20;;;31.90;85.90;;;;;;5039132;28;20356;-80
2022/05/19 09:50:14;;;;;;;4.05;2.40;;;32.20;80.90;;;;;;5024091;28;20128;-80
2022/05/19 09:52:42;;;;;;;3.92;2.50;;;32.40;76.20;;;;;;5051684;28;20494;-81
2022/05/19 09:55:09;;;;;;;2.90;2.20;;;32.60;81.70;;;;;;5047244;28;20124;-81
2022/05/19 09:57:52;;;;;;;2.50;2.25;;;32.70;82.60;;;;;;5064380;28;20040;-81
2022/05/19 10:00:21;;;;;;;2.97;2.30;;;32.90;80.50;;;;;;5058638;28;20036;-81
2022/05/19 10:02:50;;;;;;;2.67;2.10;;;33.10;83.00;;;;;;5046549;28;20127;-81
2022/05/19 10:05:45;;;;;;;4.03;2.20;;;33.20;80.10;;;;;;5046901;28;20287;-81
2022/05/19 10:08:26;;;;;;;3.03;2.72;;;33.40;77.70;;;;;;5028770;28;20946;-81
2022/05/19 10:11:18;;;;;;;3.03;2.40;;;33.70;76.10;;;;;;5044878;28;20033;-81
2022/05/19 10:13:55;;;;;;;3.47;2.60;;;33.80;80.20;;;;;;5041361;28;20474;-82
2022/05/19 10:16:30;;;;;;;3.65;2.47;;;34.10;77.10;;;;;;5048093;28;20045;-81
2022/05/19 10:19:26;;;;;;;3.08;2.50;;;34.20;78.00;;;;;;5058427;28;20067;-82
2022/05/19 10:22:22;;;;;;;2.53;2.33;;;34.50;73.60;;;;;;5061242;28;20032;-81
2022/05/19 10:25:21;;;;;;;3.65;2.60;;;34.70;75.70;;;;;;5050319;28;20072;-81
2022/05/19 10:31:49;;;;;;;2.78;2.40;;;34.80;72.90;;;;;;5008065;28;20718;-80
2022/05/19 10:34:50;;;;;;;3.05;2.33;;;34.60;69.10;;;;;;5055417;28;20043;-82
2022/05/19 10:37:31;;;;;;;2.40;2.20;;;34.20;63.70;;;;;;5036461;28;20588;-81
2022/05/19 10:40:26;;;;;;;2.92;2.30;;;33.80;69.80;;;;;;5059366;28;20127;-80
2022/05/19 10:43:03;;;;;;;2.40;2.13;;;33.30;64.00;;;;;;5053499;28;20024;-81
2022/05/19 10:45:41;;;;;;;2.80;2.17;;;32.90;67.20;;;;;;5046849;28;20072;-82
2022/05/19 10:48:31;;;;;;;2.10;1.90;;;32.40;64.70;;;;;;5073847;28;20028;-83
2022/05/19 10:51:14;;;;;;;5.63;1.50;;;32.00;60.80;;;;;;5039545;28;20047;-83
2022/05/19 10:53:50;;;;;;;3.03;1.10;;;31.30;61.50;;;;;;5059827;28;20127;-84
2022/05/19 10:56:54;;;;;;;3.40;0.97;;;30.50;57.80;;;;;;5037049;28;20110;-84
2022/05/19 10:59:26;;;;;;;1.52;0.90;;;29.30;59.30;;;;;;5050616;28;20722;-84
2022/05/19 11:02:29;;;;;;;2.28;1.17;;;27.90;61.60;;;;;;5051892;28;20031;-86
2022/05/19 11:05:17;;;;;;;2.30;1.33;;;26.80;64.40;;;;;;5058385;28;20086;-82
2022/05/19 11:08:01;;;;;;;1.75;1.17;;;25.80;67.50;;;;;;5040039;28;20044;-83
2022/05/19 11:10:34;;;;;;;3.07;1.10;;;25.00;69.70;;;;;;5053226;28;20234;-82
2022/05/19 11:13:11;;;;;;;2.85;0.98;;;24.40;71.80;;;;;;5032901;28;20503;-82
2022/05/19 11:15:49;;;;;;;2.55;0.90;;;23.90;73.30;;;;;;5078327;28;20044;-81
2022/05/19 11:18:37;;;;;;;1.95;1.15;;;23.50;74.60;;;;;;5038849;28;20044;-82
2022/05/19 11:21:16;;;;;;;3.42;1.05;;;23.20;75.70;;;;;;5059471;28;20531;-81
2022/05/19 11:24:07;;;;;;;1.97;1.20;;;22.90;76.90;;;;;;5040809;28;20086;-83
2022/05/19 11:26:47;;;;;;;3.25;1.48;;;22.70;77.80;;;;;;5031055;28;20043;-83
2022/05/19 11:29:22;;;;;;;3.40;1.27;;;22.50;78.90;;;;;;5036567;28;20236;-80
2022/05/19 11:32:04;;;;;;;3.28;1.40;;;22.50;80.20;;;;;;5040509;28;20131;-82
2022/05/19 11:35:04;;;;;;;2.10;1.50;;;22.40;81.10;;;;;;5061053;28;20032;-81
2022/05/19 11:37:36;;;;;;;2.07;1.50;;;22.30;81.70;;;;;;5034211;28;20403;-81
2022/05/19 11:40:04;;;;;;;2.85;1.50;;;22.30;83.40;;;;;;5011594;28;20032;-81
2022/05/19 11:42:44;;;;;;;2.67;1.48;;;22.40;84.70;;;;;;5048195;28;20078;-82
2022/05/19 11:45:21;;;;;;;2.22;1.60;;;22.50;85.30;;;;;;5029085;28;20610;-80
2022/05/19 11:55:13;;;;;;;2.80;2.20;;;23.70;91.80;;;;;;5015665;28;20736;-82
2022/05/19 11:58:09;;;;;;;3.13;2.45;;;24.40;91.30;;;;;;4994487;28;20262;-81
2022/05/19 12:00:50;;;;;;;4.93;2.70;;;24.80;89.50;;;;;;5034917;28;20075;-81
2022/05/19 12:03:29;;;;;;;3.67;2.42;;;25.00;86.20;;;;;;5030263;28;20344;-81
2022/05/19 12:06:03;;;;;;;3.30;2.80;;;25.10;85.90;;;;;;5047306;28;20036;-80
2022/05/19 12:08:43;;;;;;;3.80;2.80;;;25.10;83.60;;;;;;5039692;28;20472;-81
2022/05/19 12:11:26;;;;;;;3.38;2.70;;;25.00;83.20;;;;;;5015983;28;20261;-80
2022/05/19 12:14:10;;;;;;;5.25;2.80;;;24.80;81.50;;;;;;5030629;28;20037;-81
2022/05/19 12:16:59;;;;;;;4.20;3.03;;;24.70;81.80;;;;;;5059262;28;20448;-80
2022/05/19 12:19:34;;;;;;;4.50;3.10;;;24.50;81.70;;;;;;5054659;28;20048;-79
2022/05/19 12:22:01;;;;;;;5.68;3.17;;;24.40;82.70;;;;;;5058394;28;20070;-79
2022/05/19 12:24:36;;;;;;;4.60;3.40;;;24.30;83.80;;;;;;5038944;28;20098;-79
2022/05/19 12:27:18;;;;;;;4.78;3.50;;;24.30;83.80;;;;;;5029309;28;20337;-79
2022/05/19 12:33:10;;;;;;;4.63;3.23;;;24.20;84.20;;;;;;5047597;28;20128;-80
2022/05/19 12:35:38;;;;;;;4.32;3.47;;;24.10;85.40;;;;;;5033336;28;20078;-80
2022/05/19 12:38:07;;;;;;;6.38;3.70;;;24.20;87.20;;;;;;5036139;28;20032;-80
2022/05/19 12:40:53;;;;;;;4.63;3.83;;;24.30;87.60;;;;;;5058023;28;20024;-81
2022/05/19 12:43:23;;;;;;;5.80;4.00;;;24.30;85.40;;;;;;5041979;28;20323;-81
2022/05/19 12:45:53;;;;;;;3.90;3.43;;;24.30;86.00;;;;;;5039603;28;20072;-81
2022/05/19 12:48:25;;;;;;;4.13;3.35;;;24.30;85.00;;;;;;5047181;28;20388;-80
2022/05/19 12:51:14;;;;;;;4.30;3.47;;;24.30;84.80;;;;;;5052895;28;20452;-80
2022/05/19 12:53:49;;;;;;;5.05;3.60;;;24.20;85.20;;;;;;5077692;28;20063;-81
2022/05/19 12:56:35;;;;;;;4.10;3.60;;;24.20;85.00;;;;;;5044159;28;20263;-79
2022/05/19 12:59:04;;;;;;;5.10;3.60;;;24.20;86.30;;;;;;5021339;28;20098;-80
2022/05/19 13:01:34;;;;;;;4.50;3.53;;;24.20;89.10;;;;;;5044189;28;20064;-80
2022/05/19 13:04:26;;;;;;;4.88;3.95;;;24.30;88.40;;;;;;5041154;28;20063;-80
2022/05/19 13:06:59;;;;;;;4.55;3.80;;;24.30;87.40;;;;;;5032863;28;20036;-80
2022/05/19 13:09:31;;;;;;;4.60;3.38;;;24.50;90.30;;;;;;5043082;28;20317;-80
2022/05/19 13:12:02;;;;;;;4.77;3.20;;;24.70;90.70;;;;;;5062967;28;20040;-80
2022/05/19 13:14:41;;;;;;;4.22;3.35;;;25.00;91.30;;;;;;5027296;28;21254;-79
2022/05/19 13:17:12;;;;;;;3.45;2.90;;;25.30;90.60;;;;;;5033304;28;20072;-80
2022/05/19 13:19:40;;;;;;;3.97;3.05;;;25.60;90.30;;;;;;5045848;28;20409;-80
2022/05/19 13:22:17;;;;;;;3.88;2.53;;;25.70;90.00;;;;;;5027453;28;20550;-80
2022/05/19 13:24:46;;;;;;;4.47;2.80;;;25.90;89.00;;;;;;5043395;28;20038;-80
2022/05/19 13:30:21;;;;;;;3.50;2.63;;;26.10;86.40;;;;;;5033707;28;21936;-81
2022/05/19 13:32:48;;;;;;;2.88;2.15;;;26.20;87.20;;;;;;5045348;28;20019;-81
2022/05/19 13:35:23;;;;;;;3.20;2.42;;;26.20;88.30;;;;;;5046890;28;20036;-80
2022/05/19 13:37:49;;;;;;;2.33;2.03;;;26.40;86.70;;;;;;5051555;28;20472;-81